sensor_id;sensor_type;location;lat;lon;timestamp;pressure;altitude;pressure_sealevel;temperature;humidity
54806;BME280;62866;55.776;37.496;2023-04-23T00:01:35;99622.78;;;9.24;53.08
54806;BME280;62866;55.776;37.496;2023-04-23T00:04:07;99623.13;;;9.21;53.03
54806;BME280;62866;55.776;37.496;2023-04-23T00:06:33;99621.88;;;9.17;53.08
54806;BME280;62866;55.776;37.496;2023-04-23T00:08:59;99627.84;;;9.19;52.77
54806;BME280;62866;55.776;37.496;2023-04-23T00:11:26;99628.03;;;9.18;52.88
54806;BME280;62866;55.776;37.496;2023-04-23T00:13:52;99617.88;;;9.13;53.04
54806;BME280;62866;55.776;37.496;2023-04-23T00:16:18;99631.06;;;9.14;53.25
54806;BME280;62866;55.776;37.496;2023-04-23T00:18:44;99620.66;;;9.05;53.36
54806;BME280;62866;55.776;37.496;2023-04-23T00:21:10;99629.28;;;9.07;53.71
54806;BME280;62866;55.776;37.496;2023-04-23T00:23:37;99625.97;;;9.05;53.63
54806;BME280;62866;55.776;37.496;2023-04-23T00:26:03;99634.38;;;9.02;53.84
54806;BME280;62866;55.776;37.496;2023-04-23T00:28:28;99631.78;;;8.94;53.55
54806;BME280;62866;55.776;37.496;2023-04-23T00:30:54;99629.75;;;8.96;53.83
54806;BME280;62866;55.776;37.496;2023-04-23T00:33:19;99640.78;;;8.93;54.09
54806;BME280;62866;55.776;37.496;2023-04-23T00:35:45;99638.28;;;8.91;53.97
54806;BME280;62866;55.776;37.496;2023-04-23T00:38:11;99641.78;;;8.92;53.93
54806;BME280;62866;55.776;37.496;2023-04-23T00:40:36;99636.81;;;8.89;54.06
54806;BME280;62866;55.776;37.496;2023-04-23T00:43:02;99650.31;;;8.87;54.26
54806;BME280;62866;55.776;37.496;2023-04-23T00:45:28;99642.53;;;8.86;54.01
54806;BME280;62866;55.776;37.496;2023-04-23T00:47:55;99646.94;;;8.79;53.69
54806;BME280;62866;55.776;37.496;2023-04-23T00:50:20;99659.59;;;8.77;54.64
54806;BME280;62866;55.776;37.496;2023-04-23T00:52:46;99657.28;;;8.73;54.11
54806;BME280;62866;55.776;37.496;2023-04-23T00:55:12;99658.28;;;8.72;54.44
54806;BME280;62866;55.776;37.496;2023-04-23T00:57:37;99648.84;;;8.70;54.90
54806;BME280;62866;55.776;37.496;2023-04-23T01:00:05;99651.50;;;8.70;54.16
54806;BME280;62866;55.776;37.496;2023-04-23T01:02:33;99656.00;;;8.69;54.52
54806;BME280;62866;55.776;37.496;2023-04-23T01:05:00;99652.50;;;8.69;54.29
54806;BME280;62866;55.776;37.496;2023-04-23T01:07:26;99646.69;;;8.65;54.76
54806;BME280;62866;55.776;37.496;2023-04-23T01:09:52;99652.38;;;8.62;54.59
54806;BME280;62866;55.776;37.496;2023-04-23T01:12:18;99654.84;;;8.64;54.19
54806;BME280;62866;55.776;37.496;2023-04-23T01:14:43;99662.84;;;8.64;54.27
54806;BME280;62866;55.776;37.496;2023-04-23T01:17:10;99661.03;;;8.64;54.42
54806;BME280;62866;55.776;37.496;2023-04-23T01:19:36;99657.69;;;8.62;54.42
54806;BME280;62866;55.776;37.496;2023-04-23T01:22:07;99663.03;;;8.62;55.12
54806;BME280;62866;55.776;37.496;2023-04-23T01:24:33;99663.69;;;8.64;54.91
54806;BME280;62866;55.776;37.496;2023-04-23T01:26:59;99664.50;;;8.65;54.77
54806;BME280;62866;55.776;37.496;2023-04-23T01:29:26;99667.56;;;8.62;54.43
54806;BME280;62866;55.776;37.496;2023-04-23T01:31:52;99663.41;;;8.59;55.25
54806;BME280;62866;55.776;37.496;2023-04-23T01:34:18;99671.41;;;8.59;55.12
54806;BME280;62866;55.776;37.496;2023-04-23T01:36:46;99651.31;;;8.49;55.54
54806;BME280;62866;55.776;37.496;2023-04-23T01:39:12;99656.13;;;8.53;55.47
54806;BME280;62866;55.776;37.496;2023-04-23T01:41:38;99635.22;;;8.42;55.52
54806;BME280;62866;55.776;37.496;2023-04-23T01:44:04;99643.34;;;8.49;55.54
54806;BME280;62866;55.776;37.496;2023-04-23T01:46:29;99657.06;;;8.60;55.27
54806;BME280;62866;55.776;37.496;2023-04-23T01:48:55;99666.84;;;8.68;55.10
54806;BME280;62866;55.776;37.496;2023-04-23T01:51:21;99663.34;;;8.67;55.44
54806;BME280;62866;55.776;37.496;2023-04-23T01:53:47;99660.78;;;8.74;55.46
54806;BME280;62866;55.776;37.496;2023-04-23T01:56:15;99670.09;;;8.78;55.14
54806;BME280;62866;55.776;37.496;2023-04-23T01:58:40;99662.72;;;8.80;55.12
54806;BME280;62866;55.776;37.496;2023-04-23T02:01:06;99672.69;;;8.86;55.37
54806;BME280;62866;55.776;37.496;2023-04-23T02:03:32;99676.44;;;8.92;55.38
54806;BME280;62866;55.776;37.496;2023-04-23T02:05:59;99669.72;;;8.96;55.25
54806;BME280;62866;55.776;37.496;2023-04-23T02:08:26;99675.38;;;9.01;55.28
54806;BME280;62866;55.776;37.496;2023-04-23T02:10:52;99671.78;;;9.08;55.12
54806;BME280;62866;55.776;37.496;2023-04-23T02:13:17;99671.06;;;9.14;55.31
54806;BME280;62866;55.776;37.496;2023-04-23T02:15:43;99658.94;;;9.12;54.94
54806;BME280;62866;55.776;37.496;2023-04-23T02:18:08;99675.59;;;9.29;54.85
54806;BME280;62866;55.776;37.496;2023-04-23T02:20:35;99665.38;;;9.32;54.93
54806;BME280;62866;55.776;37.496;2023-04-23T02:23:05;99675.78;;;9.42;55.03
54806;BME280;62866;55.776;37.496;2023-04-23T02:25:31;99676.69;;;9.49;54.84
54806;BME280;62866;55.776;37.496;2023-04-23T02:27:57;99681.28;;;9.55;54.59
54806;BME280;62866;55.776;37.496;2023-04-23T02:30:24;99677.25;;;9.59;54.34
54806;BME280;62866;55.776;37.496;2023-04-23T02:32:50;99687.84;;;9.67;54.61
54806;BME280;62866;55.776;37.496;2023-04-23T02:35:15;99683.41;;;9.74;54.23
54806;BME280;62866;55.776;37.496;2023-04-23T02:37:41;99680.63;;;9.82;53.93
54806;BME280;62866;55.776;37.496;2023-04-23T02:40:07;99684.38;;;9.88;54.29
54806;BME280;62866;55.776;37.496;2023-04-23T02:42:33;99679.44;;;9.85;54.38
54806;BME280;62866;55.776;37.496;2023-04-23T02:44:59;99686.34;;;9.94;54.35
54806;BME280;62866;55.776;37.496;2023-04-23T02:47:25;99678.31;;;9.94;54.36
54806;BME280;62866;55.776;37.496;2023-04-23T02:49:50;99689.34;;;10.06;54.47
54806;BME280;62866;55.776;37.496;2023-04-23T02:52:16;99691.06;;;10.13;53.96
54806;BME280;62866;55.776;37.496;2023-04-23T02:54:42;99694.47;;;10.22;53.88
54806;BME280;62866;55.776;37.496;2023-04-23T02:57:07;99690.78;;;10.23;53.46
54806;BME280;62866;55.776;37.496;2023-04-23T02:59:33;99709.19;;;10.33;53.61
54806;BME280;62866;55.776;37.496;2023-04-23T03:01:58;99699.16;;;10.35;53.70
54806;BME280;62866;55.776;37.496;2023-04-23T03:04:24;99707.69;;;10.45;53.99
54806;BME280;62866;55.776;37.496;2023-04-23T03:06:50;99714.97;;;10.51;53.63
54806;BME280;62866;55.776;37.496;2023-04-23T03:09:15;99707.81;;;10.58;53.41
54806;BME280;62866;55.776;37.496;2023-04-23T03:11:41;99699.88;;;10.64;53.07
54806;BME280;62866;55.776;37.496;2023-04-23T03:14:06;99707.56;;;10.74;52.91
54806;BME280;62866;55.776;37.496;2023-04-23T03:16:32;99710.13;;;10.82;53.02
54806;BME280;62866;55.776;37.496;2023-04-23T03:18:58;99717.00;;;10.91;53.38
54806;BME280;62866;55.776;37.496;2023-04-23T03:21:23;99717.69;;;11.00;53.07
54806;BME280;62866;55.776;37.496;2023-04-23T03:23:49;99720.22;;;11.08;52.65
54806;BME280;62866;55.776;37.496;2023-04-23T03:26:15;99720.25;;;11.15;52.54
54806;BME280;62866;55.776;37.496;2023-04-23T03:28:40;99700.69;;;11.14;52.39
54806;BME280;62866;55.776;37.496;2023-04-23T03:31:06;99719.41;;;11.35;51.61
54806;BME280;62866;55.776;37.496;2023-04-23T03:33:31;99721.06;;;11.36;51.55
54806;BME280;62866;55.776;37.496;2023-04-23T03:35:57;99730.97;;;11.43;51.62
54806;BME280;62866;55.776;37.496;2023-04-23T03:38:22;99718.03;;;11.46;51.55
54806;BME280;62866;55.776;37.496;2023-04-23T03:40:48;99733.13;;;11.54;51.99
54806;BME280;62866;55.776;37.496;2023-04-23T03:43:14;99724.28;;;11.53;51.67
54806;BME280;62866;55.776;37.496;2023-04-23T03:45:39;99735.25;;;11.65;51.51
54806;BME280;62866;55.776;37.496;2023-04-23T03:48:05;99721.81;;;11.58;50.86
54806;BME280;62866;55.776;37.496;2023-04-23T03:50:30;99733.22;;;11.73;50.58
54806;BME280;62866;55.776;37.496;2023-04-23T03:52:59;99735.75;;;11.75;50.50
54806;BME280;62866;55.776;37.496;2023-04-23T03:55:24;99737.03;;;11.79;50.70
54806;BME280;62866;55.776;37.496;2023-04-23T03:57:50;99744.66;;;11.82;50.60
54806;BME280;62866;55.776;37.496;2023-04-23T04:00:15;99751.28;;;11.86;50.10
54806;BME280;62866;55.776;37.496;2023-04-23T04:02:41;99738.56;;;11.95;50.03
54806;BME280;62866;55.776;37.496;2023-04-23T04:05:07;99746.22;;;12.04;49.89
54806;BME280;62866;55.776;37.496;2023-04-23T04:07:33;99746.25;;;12.11;49.77
54806;BME280;62866;55.776;37.496;2023-04-23T04:10:01;99746.06;;;12.12;49.38
54806;BME280;62866;55.776;37.496;2023-04-23T04:12:28;99747.09;;;12.18;48.90
54806;BME280;62866;55.776;37.496;2023-04-23T04:14:53;99754.34;;;12.31;48.08
54806;BME280;62866;55.776;37.496;2023-04-23T04:17:19;99734.75;;;12.30;47.78
54806;BME280;62866;55.776;37.496;2023-04-23T04:19:44;99757.75;;;12.52;48.21
54806;BME280;62866;55.776;37.496;2023-04-23T04:22:10;99755.53;;;12.63;47.67
54806;BME280;62866;55.776;37.496;2023-04-23T04:24:36;99763.19;;;12.79;47.37
54806;BME280;62866;55.776;37.496;2023-04-23T04:27:02;99755.16;;;12.92;46.91
54806;BME280;62866;55.776;37.496;2023-04-23T04:29:29;99763.00;;;13.07;46.22
54806;BME280;62866;55.776;37.496;2023-04-23T04:31:55;99760.53;;;13.12;46.30
54806;BME280;62866;55.776;37.496;2023-04-23T04:34:21;99760.16;;;13.15;46.18
54806;BME280;62866;55.776;37.496;2023-04-23T04:36:48;99765.53;;;13.21;45.98
54806;BME280;62866;55.776;37.496;2023-04-23T04:39:13;99771.09;;;13.26;45.66
54806;BME280;62866;55.776;37.496;2023-04-23T04:41:40;99773.19;;;13.38;45.71
54806;BME280;62866;55.776;37.496;2023-04-23T04:44:07;99775.63;;;13.39;45.56
54806;BME280;62866;55.776;37.496;2023-04-23T04:46:33;99768.22;;;13.41;45.46
54806;BME280;62866;55.776;37.496;2023-04-23T04:49:06;99777.09;;;13.48;45.61
54806;BME280;62866;55.776;37.496;2023-04-23T04:51:33;99764.91;;;13.59;45.34
54806;BME280;62866;55.776;37.496;2023-04-23T04:53:58;99775.63;;;13.72;45.34
54806;BME280;62866;55.776;37.496;2023-04-23T04:56:24;99773.56;;;13.67;44.88
54806;BME280;62866;55.776;37.496;2023-04-23T04:58:50;99771.91;;;13.66;44.90
54806;BME280;62866;55.776;37.496;2023-04-23T05:01:16;99779.13;;;13.79;44.87
54806;BME280;62866;55.776;37.496;2023-04-23T05:03:43;99787.16;;;14.05;44.16
54806;BME280;62866;55.776;37.496;2023-04-23T05:06:08;99781.06;;;14.23;43.96
54806;BME280;62866;55.776;37.496;2023-04-23T05:08:34;99782.91;;;14.42;43.93
54806;BME280;62866;55.776;37.496;2023-04-23T05:11:00;99783.44;;;14.58;43.77
54806;BME280;62866;55.776;37.496;2023-04-23T05:13:26;99788.94;;;15.07;42.88
54806;BME280;62866;55.776;37.496;2023-04-23T05:15:52;99793.31;;;15.33;42.06
54806;BME280;62866;55.776;37.496;2023-04-23T05:18:17;99793.94;;;16.58;40.48
54806;BME280;62866;55.776;37.496;2023-04-23T05:20:43;99791.22;;;19.59;36.02
54806;BME280;62866;55.776;37.496;2023-04-23T05:23:09;99797.31;;;19.50;36.32
54806;BME280;62866;55.776;37.496;2023-04-23T05:25:35;99796.16;;;19.17;36.80
54806;BME280;62866;55.776;37.496;2023-04-23T05:28:01;99795.91;;;19.02;37.14
54806;BME280;62866;55.776;37.496;2023-04-23T05:30:26;99798.13;;;18.77;37.23
54806;BME280;62866;55.776;37.496;2023-04-23T05:32:52;99803.88;;;18.40;37.78
54806;BME280;62866;55.776;37.496;2023-04-23T05:35:18;99797.22;;;18.08;38.01
54806;BME280;62866;55.776;37.496;2023-04-23T05:37:43;99793.81;;;18.01;38.29
54806;BME280;62866;55.776;37.496;2023-04-23T05:40:09;99802.53;;;18.03;37.84
54806;BME280;62866;55.776;37.496;2023-04-23T05:42:35;99801.47;;;17.80;38.60
54806;BME280;62866;55.776;37.496;2023-04-23T05:45:01;99805.59;;;18.06;37.48
54806;BME280;62866;55.776;37.496;2023-04-23T05:47:28;99800.84;;;18.25;36.79
54806;BME280;62866;55.776;37.496;2023-04-23T05:49:53;99801.34;;;18.22;37.53
54806;BME280;62866;55.776;37.496;2023-04-23T05:52:22;99805.56;;;18.30;37.27
54806;BME280;62866;55.776;37.496;2023-04-23T05:54:47;99799.69;;;18.09;37.85
54806;BME280;62866;55.776;37.496;2023-04-23T05:57:13;99791.47;;;18.04;37.33
54806;BME280;62866;55.776;37.496;2023-04-23T05:59:38;99807.41;;;18.41;36.38
54806;BME280;62866;55.776;37.496;2023-04-23T06:02:04;99803.63;;;18.65;36.06
54806;BME280;62866;55.776;37.496;2023-04-23T06:04:29;99808.13;;;18.36;36.42
54806;BME280;62866;55.776;37.496;2023-04-23T06:06:55;99810.44;;;18.56;36.89
54806;BME280;62866;55.776;37.496;2023-04-23T06:09:21;99807.53;;;18.86;35.97
54806;BME280;62866;55.776;37.496;2023-04-23T06:11:46;99815.31;;;19.11;35.68
54806;BME280;62866;55.776;37.496;2023-04-23T06:14:15;99818.53;;;19.08;35.78
54806;BME280;62866;55.776;37.496;2023-04-23T06:16:40;99818.47;;;18.91;35.84
54806;BME280;62866;55.776;37.496;2023-04-23T06:19:06;99824.41;;;18.76;36.04
54806;BME280;62866;55.776;37.496;2023-04-23T06:21:31;99826.34;;;18.64;36.06
54806;BME280;62866;55.776;37.496;2023-04-23T06:23:57;99828.47;;;18.62;36.11
54806;BME280;62866;55.776;37.496;2023-04-23T06:26:23;99816.69;;;18.45;36.48
54806;BME280;62866;55.776;37.496;2023-04-23T06:28:48;99825.69;;;18.22;36.63
54806;BME280;62866;55.776;37.496;2023-04-23T06:31:14;99835.09;;;18.31;36.70
54806;BME280;62866;55.776;37.496;2023-04-23T06:33:39;99829.09;;;18.29;36.75
54806;BME280;62866;55.776;37.496;2023-04-23T06:36:06;99831.88;;;18.34;36.51
54806;BME280;62866;55.776;37.496;2023-04-23T06:38:33;99837.81;;;18.31;36.69
54806;BME280;62866;55.776;37.496;2023-04-23T06:40:59;99829.88;;;18.41;36.79
54806;BME280;62866;55.776;37.496;2023-04-23T06:43:24;99841.63;;;18.58;36.66
54806;BME280;62866;55.776;37.496;2023-04-23T06:45:50;99841.72;;;18.75;36.49
54806;BME280;62866;55.776;37.496;2023-04-23T06:48:16;99833.31;;;18.88;36.41
54806;BME280;62866;55.776;37.496;2023-04-23T06:50:43;99840.88;;;19.15;36.14
54806;BME280;62866;55.776;37.496;2023-04-23T06:53:09;99844.00;;;19.23;35.95
54806;BME280;62866;55.776;37.496;2023-04-23T06:55:37;99850.72;;;19.49;35.61
54806;BME280;62866;55.776;37.496;2023-04-23T06:58:03;99844.00;;;19.68;35.49
54806;BME280;62866;55.776;37.496;2023-04-23T07:00:31;99857.72;;;19.95;35.36
54806;BME280;62866;55.776;37.496;2023-04-23T07:02:57;99852.72;;;20.26;34.69
54806;BME280;62866;55.776;37.496;2023-04-23T07:05:23;99854.75;;;20.14;34.63
54806;BME280;62866;55.776;37.496;2023-04-23T07:07:48;99855.38;;;20.21;34.77
54806;BME280;62866;55.776;37.496;2023-04-23T07:10:14;99858.16;;;20.42;34.52
54806;BME280;62866;55.776;37.496;2023-04-23T07:12:40;99848.53;;;20.35;34.25
54806;BME280;62866;55.776;37.496;2023-04-23T07:15:06;99835.25;;;20.17;34.45
54806;BME280;62866;55.776;37.496;2023-04-23T07:17:32;99857.28;;;20.20;34.41
54806;BME280;62866;55.776;37.496;2023-04-23T07:19:58;99866.72;;;20.18;34.46
54806;BME280;62866;55.776;37.496;2023-04-23T07:22:24;99855.63;;;20.19;34.80
54806;BME280;62866;55.776;37.496;2023-04-23T07:24:51;99853.63;;;20.31;34.15
54806;BME280;62866;55.776;37.496;2023-04-23T07:27:17;99863.91;;;20.68;33.78
54806;BME280;62866;55.776;37.496;2023-04-23T07:29:43;99857.88;;;21.09;33.07
54806;BME280;62866;55.776;37.496;2023-04-23T07:32:08;99858.53;;;21.43;32.72
54806;BME280;62866;55.776;37.496;2023-04-23T07:34:34;99861.25;;;21.43;32.63
54806;BME280;62866;55.776;37.496;2023-04-23T07:37:01;99854.09;;;21.32;32.98
54806;BME280;62866;55.776;37.496;2023-04-23T07:39:27;99860.84;;;21.56;32.68
54806;BME280;62866;55.776;37.496;2023-04-23T07:41:53;99862.22;;;21.91;32.69
54806;BME280;62866;55.776;37.496;2023-04-23T07:44:18;99851.53;;;21.84;32.19
54806;BME280;62866;55.776;37.496;2023-04-23T07:46:44;99872.09;;;22.02;32.12
54806;BME280;62866;55.776;37.496;2023-04-23T07:49:09;99848.06;;;22.26;31.56
54806;BME280;62866;55.776;37.496;2023-04-23T07:51:35;99850.16;;;22.71;31.13
54806;BME280;62866;55.776;37.496;2023-04-23T07:54:01;99855.25;;;24.46;29.72
54806;BME280;62866;55.776;37.496;2023-04-23T07:56:26;99851.94;;;25.24;28.54
54806;BME280;62866;55.776;37.496;2023-04-23T07:58:52;99845.06;;;25.26;28.52
54806;BME280;62866;55.776;37.496;2023-04-23T08:01:22;99846.75;;;25.56;27.81
54806;BME280;62866;55.776;37.496;2023-04-23T08:03:48;99846.03;;;25.02;27.69
54806;BME280;62866;55.776;37.496;2023-04-23T08:06:13;99847.25;;;25.68;26.95
54806;BME280;62866;55.776;37.496;2023-04-23T08:08:39;99848.44;;;25.52;26.51
54806;BME280;62866;55.776;37.496;2023-04-23T08:11:05;99854.53;;;25.83;26.38
54806;BME280;62866;55.776;37.496;2023-04-23T08:13:31;99849.72;;;27.55;25.15
54806;BME280;62866;55.776;37.496;2023-04-23T08:15:57;99846.03;;;27.28;24.50
54806;BME280;62866;55.776;37.496;2023-04-23T08:18:22;99840.69;;;27.17;24.79
54806;BME280;62866;55.776;37.496;2023-04-23T08:20:48;99830.84;;;28.00;23.15
54806;BME280;62866;55.776;37.496;2023-04-23T08:23:14;99843.44;;;29.38;22.45
54806;BME280;62866;55.776;37.496;2023-04-23T08:25:40;99840.72;;;30.44;21.30
54806;BME280;62866;55.776;37.496;2023-04-23T08:28:06;99835.63;;;32.24;19.89
54806;BME280;62866;55.776;37.496;2023-04-23T08:30:31;99825.53;;;31.12;20.26
54806;BME280;62866;55.776;37.496;2023-04-23T08:32:57;99828.13;;;29.68;21.04
54806;BME280;62866;55.776;37.496;2023-04-23T08:35:23;99837.44;;;28.31;22.02
54806;BME280;62866;55.776;37.496;2023-04-23T08:37:49;99821.94;;;29.62;21.00
54806;BME280;62866;55.776;37.496;2023-04-23T08:40:14;99828.38;;;30.99;19.86
54806;BME280;62866;55.776;37.496;2023-04-23T08:42:48;99838.47;;;30.15;20.80
54806;BME280;62866;55.776;37.496;2023-04-23T08:45:15;99840.88;;;28.64;20.30
54806;BME280;62866;55.776;37.496;2023-04-23T08:47:41;99841.09;;;27.62;21.48
54806;BME280;62866;55.776;37.496;2023-04-23T08:50:09;99835.47;;;27.16;21.69
54806;BME280;62866;55.776;37.496;2023-04-23T08:52:39;99830.44;;;26.80;21.62
54806;BME280;62866;55.776;37.496;2023-04-23T08:55:07;99828.22;;;25.48;22.90
54806;BME280;62866;55.776;37.496;2023-04-23T08:57:39;99836.25;;;26.55;22.06
54806;BME280;62866;55.776;37.496;2023-04-23T09:00:07;99786.50;;;27.42;21.31
54806;BME280;62866;55.776;37.496;2023-04-23T09:02:35;99826.25;;;28.28;21.08
54806;BME280;62866;55.776;37.496;2023-04-23T09:05:03;99820.66;;;29.46;20.13
54806;BME280;62866;55.776;37.496;2023-04-23T09:07:29;99800.53;;;29.90;20.01
54806;BME280;62866;55.776;37.496;2023-04-23T09:09:55;99813.22;;;29.11;20.39
54806;BME280;62866;55.776;37.496;2023-04-23T09:12:20;99819.59;;;28.70;20.12
54806;BME280;62866;55.776;37.496;2023-04-23T09:14:46;99804.75;;;27.84;21.03
54806;BME280;62866;55.776;37.496;2023-04-23T09:17:12;99819.22;;;27.57;20.83
54806;BME280;62866;55.776;37.496;2023-04-23T09:19:38;99806.66;;;26.76;21.59
54806;BME280;62866;55.776;37.496;2023-04-23T09:22:06;99811.00;;;25.43;22.81
54806;BME280;62866;55.776;37.496;2023-04-23T09:24:33;99811.59;;;24.90;22.93
54806;BME280;62866;55.776;37.496;2023-04-23T09:26:59;99821.44;;;24.17;23.70
54806;BME280;62866;55.776;37.496;2023-04-23T09:29:24;99816.88;;;23.52;23.95
54806;BME280;62866;55.776;37.496;2023-04-23T09:31:55;99818.44;;;23.22;24.36
54806;BME280;62866;55.776;37.496;2023-04-23T09:34:22;99812.41;;;23.00;24.81
54806;BME280;62866;55.776;37.496;2023-04-23T09:36:50;99815.00;;;22.69;24.77
54806;BME280;62866;55.776;37.496;2023-04-23T09:39:21;99803.16;;;22.39;25.49
54806;BME280;62866;55.776;37.496;2023-04-23T09:41:46;99806.38;;;22.25;25.94
54806;BME280;62866;55.776;37.496;2023-04-23T09:44:21;99802.53;;;22.21;25.71
54806;BME280;62866;55.776;37.496;2023-04-23T09:46:47;99795.13;;;22.12;25.84
54806;BME280;62866;55.776;37.496;2023-04-23T09:49:14;99802.28;;;22.23;26.04
54806;BME280;62866;55.776;37.496;2023-04-23T09:51:42;99794.91;;;22.23;26.01
54806;BME280;62866;55.776;37.496;2023-04-23T09:54:20;99789.22;;;22.25;26.31
54806;BME280;62866;55.776;37.496;2023-04-23T09:56:51;99784.03;;;22.23;25.50
54806;BME280;62866;55.776;37.496;2023-04-23T09:59:25;99785.59;;;22.14;25.60
54806;BME280;62866;55.776;37.496;2023-04-23T10:01:51;99787.19;;;22.05;26.17
54806;BME280;62866;55.776;37.496;2023-04-23T10:04:27;99787.50;;;22.09;26.15
54806;BME280;62866;55.776;37.496;2023-04-23T10:06:54;99791.56;;;22.11;26.27
54806;BME280;62866;55.776;37.496;2023-04-23T10:09:24;99796.94;;;22.01;25.97
54806;BME280;62866;55.776;37.496;2023-04-23T10:11:58;99799.09;;;21.57;26.99
54806;BME280;62866;55.776;37.496;2023-04-23T10:14:26;99779.22;;;20.98;27.36
54806;BME280;62866;55.776;37.496;2023-04-23T10:17:00;99779.41;;;21.18;27.18
54806;BME280;62866;55.776;37.496;2023-04-23T10:19:26;99775.16;;;21.27;26.93
54806;BME280;62866;55.776;37.496;2023-04-23T10:22:13;99773.69;;;21.46;26.77
54806;BME280;62866;55.776;37.496;2023-04-23T10:24:41;99782.22;;;21.60;26.78
54806;BME280;62866;55.776;37.496;2023-04-23T10:27:11;99781.97;;;21.62;27.04
54806;BME280;62866;55.776;37.496;2023-04-23T10:29:37;99778.47;;;21.66;27.09
54806;BME280;62866;55.776;37.496;2023-04-23T10:32:04;99783.91;;;21.66;26.66
54806;BME280;62866;55.776;37.496;2023-04-23T10:34:31;99779.78;;;21.58;26.70
54806;BME280;62866;55.776;37.496;2023-04-23T10:36:58;99778.41;;;21.56;26.76
54806;BME280;62866;55.776;37.496;2023-04-23T10:39:32;99779.16;;;21.51;26.63
54806;BME280;62866;55.776;37.496;2023-04-23T10:41:59;99774.53;;;21.20;26.87
54806;BME280;62866;55.776;37.496;2023-04-23T10:44:36;99782.44;;;20.95;27.25
54806;BME280;62866;55.776;37.496;2023-04-23T10:47:02;99772.00;;;20.87;27.46
54806;BME280;62866;55.776;37.496;2023-04-23T10:49:33;99768.84;;;20.95;28.10
54806;BME280;62866;55.776;37.496;2023-04-23T10:52:07;99770.28;;;21.02;27.27
54806;BME280;62866;55.776;37.496;2023-04-23T10:54:33;99770.47;;;20.96;27.54
54806;BME280;62866;55.776;37.496;2023-04-23T10:57:04;99772.47;;;21.05;27.69
54806;BME280;62866;55.776;37.496;2023-04-23T10:59:31;99768.03;;;21.21;27.31
54806;BME280;62866;55.776;37.496;2023-04-23T11:02:19;99760.47;;;21.28;27.73
54806;BME280;62866;55.776;37.496;2023-04-23T11:04:44;99768.47;;;21.13;27.90
54806;BME280;62866;55.776;37.496;2023-04-23T11:07:12;99762.13;;;21.02;27.93
54806;BME280;62866;55.776;37.496;2023-04-23T11:09:48;99753.25;;;20.85;27.89
54806;BME280;62866;55.776;37.496;2023-04-23T11:14:49;99752.09;;;20.54;28.05
54806;BME280;62866;55.776;37.496;2023-04-23T11:17:17;99722.06;;;20.39;28.56
54806;BME280;62866;55.776;37.496;2023-04-23T11:20:11;99752.13;;;20.81;28.41
54806;BME280;62866;55.776;37.496;2023-04-23T11:22:47;99745.56;;;21.04;28.02
54806;BME280;62866;55.776;37.496;2023-04-23T11:25:14;99747.59;;;21.18;28.26
54806;BME280;62866;55.776;37.496;2023-04-23T11:27:43;99750.91;;;21.20;27.89
54806;BME280;62866;55.776;37.496;2023-04-23T11:30:19;99750.16;;;21.30;27.82
54806;BME280;62866;55.776;37.496;2023-04-23T11:32:47;99750.19;;;21.35;27.76
54806;BME280;62866;55.776;37.496;2023-04-23T11:35:14;99744.38;;;21.22;28.30
54806;BME280;62866;55.776;37.496;2023-04-23T11:37:41;99744.69;;;21.25;27.98
54806;BME280;62866;55.776;37.496;2023-04-23T11:40:09;99745.78;;;21.24;27.94
54806;BME280;62866;55.776;37.496;2023-04-23T11:43:01;99739.59;;;21.34;28.03
54806;BME280;62866;55.776;37.496;2023-04-23T11:45:28;99747.22;;;21.37;28.23
54806;BME280;62866;55.776;37.496;2023-04-23T11:47:56;99745.78;;;21.24;27.84
54806;BME280;62866;55.776;37.496;2023-04-23T11:50:25;99753.88;;;21.19;27.84
54806;BME280;62866;55.776;37.496;2023-04-23T11:52:51;99741.41;;;21.23;28.28
54806;BME280;62866;55.776;37.496;2023-04-23T11:55:17;99740.78;;;21.16;27.78
54806;BME280;62866;55.776;37.496;2023-04-23T11:57:46;99741.50;;;21.06;28.13
54806;BME280;62866;55.776;37.496;2023-04-23T12:00:14;99741.63;;;20.90;28.61
54806;BME280;62866;55.776;37.496;2023-04-23T12:02:53;99747.91;;;20.95;28.42
54806;BME280;62866;55.776;37.496;2023-04-23T12:05:34;99746.84;;;20.96;28.63
54806;BME280;62866;55.776;37.496;2023-04-23T12:08:18;99738.53;;;21.08;27.99
54806;BME280;62866;55.776;37.496;2023-04-23T12:10:54;99734.94;;;21.02;27.80
54806;BME280;62866;55.776;37.496;2023-04-23T12:13:24;99736.28;;;21.00;27.60
54806;BME280;62866;55.776;37.496;2023-04-23T12:15:55;99721.88;;;20.99;28.63
54806;BME280;62866;55.776;37.496;2023-04-23T12:18:31;99742.09;;;21.13;28.24
54806;BME280;62866;55.776;37.496;2023-04-23T12:21:08;99741.78;;;21.10;28.29
54806;BME280;62866;55.776;37.496;2023-04-23T12:23:35;99725.13;;;21.01;28.56
54806;BME280;62866;55.776;37.496;2023-04-23T12:26:01;99742.69;;;21.15;28.29
54806;BME280;62866;55.776;37.496;2023-04-23T12:28:27;99736.81;;;21.02;28.12
54806;BME280;62866;55.776;37.496;2023-04-23T12:31:01;99745.09;;;20.85;28.52
54806;BME280;62866;55.776;37.496;2023-04-23T12:33:30;99726.94;;;20.64;28.53
54806;BME280;62866;55.776;37.496;2023-04-23T12:35:56;99733.66;;;20.56;28.97
54806;BME280;62866;55.776;37.496;2023-04-23T12:38:25;99726.34;;;20.57;28.87
54806;BME280;62866;55.776;37.496;2023-04-23T12:40:52;99717.94;;;20.58;28.76
54806;BME280;62866;55.776;37.496;2023-04-23T12:43:18;99712.31;;;20.43;29.37
54806;BME280;62866;55.776;37.496;2023-04-23T12:45:43;99713.47;;;20.47;29.12
54806;BME280;62866;55.776;37.496;2023-04-23T12:48:10;99711.19;;;20.39;28.97
54806;BME280;62866;55.776;37.496;2023-04-23T12:50:35;99702.81;;;20.40;28.79
54806;BME280;62866;55.776;37.496;2023-04-23T12:53:02;99693.75;;;20.35;29.15
54806;BME280;62866;55.776;37.496;2023-04-23T12:55:27;99699.94;;;20.30;28.76